sensor_id;sensor_type;location;lat;lon;timestamp;temperature;humidity
26182;DHT22;13927;51.534;11.866;2023-11-21T00:00:18;4.90;99.90
26182;DHT22;13927;51.534;11.866;2023-11-21T00:02:44;4.90;99.90
26182;DHT22;13927;51.534;11.866;2023-11-21T00:05:12;4.90;99.90
26182;DHT22;13927;51.534;11.866;2023-11-21T00:07:40;4.90;99.90
26182;DHT22;13927;51.534;11.866;2023-11-21T00:10:07;4.90;99.90
26182;DHT22;13927;51.534;11.866;2023-11-21T00:12:34;4.90;99.90
26182;DHT22;13927;51.534;11.866;2023-11-21T00:15:00;4.90;99.90
26182;DHT22;13927;51.534;11.866;2023-11-21T00:17:27;4.90;99.90
26182;DHT22;13927;51.534;11.866;2023-11-21T00:19:53;4.90;99.90
26182;DHT22;13927;51.534;11.866;2023-11-21T00:22:19;4.90;99.90
26182;DHT22;13927;51.534;11.866;2023-11-21T00:24:48;4.80;99.90
26182;DHT22;13927;51.534;11.866;2023-11-21T00:27:14;4.90;99.90
26182;DHT22;13927;51.534;11.866;2023-11-21T00:29:40;4.90;99.90
26182;DHT22;13927;51.534;11.866;2023-11-21T00:32:07;4.90;99.90
26182;DHT22;13927;51.534;11.866;2023-11-21T00:34:33;4.80;99.90
26182;DHT22;13927;51.534;11.866;2023-11-21T00:37:00;4.80;99.90
26182;DHT22;13927;51.534;11.866;2023-11-21T00:39:25;4.80;99.90
26182;DHT22;13927;51.534;11.866;2023-11-21T00:41:52;4.90;99.90
26182;DHT22;13927;51.534;11.866;2023-11-21T00:44:18;4.90;99.90
26182;DHT22;13927;51.534;11.866;2023-11-21T00:46:44;4.90;99.90
26182;DHT22;13927;51.534;11.866;2023-11-21T00:49:09;4.90;99.90
26182;DHT22;13927;51.534;11.866;2023-11-21T00:51:35;4.90;99.90
26182;DHT22;13927;51.534;11.866;2023-11-21T00:54:01;5.00;99.90
26182;DHT22;13927;51.534;11.866;2023-11-21T00:56:28;5.00;99.90
26182;DHT22;13927;51.534;11.866;2023-11-21T00:58:54;5.00;99.90
26182;DHT22;13927;51.534;11.866;2023-11-21T01:01:20;5.00;99.90
26182;DHT22;13927;51.534;11.866;2023-11-21T01:03:50;5.00;99.90
26182;DHT22;13927;51.534;11.866;2023-11-21T01:06:16;5.00;99.90
26182;DHT22;13927;51.534;11.866;2023-11-21T01:08:43;4.90;99.90
26182;DHT22;13927;51.534;11.866;2023-11-21T01:11:09;4.90;99.90
26182;DHT22;13927;51.534;11.866;2023-11-21T01:13:38;4.80;99.90
26182;DHT22;13927;51.534;11.866;2023-11-21T01:16:05;4.90;99.90
26182;DHT22;13927;51.534;11.866;2023-11-21T01:18:35;4.80;99.90
26182;DHT22;13927;51.534;11.866;2023-11-21T01:21:01;4.90;99.90
26182;DHT22;13927;51.534;11.866;2023-11-21T01:23:27;4.80;99.90
26182;DHT22;13927;51.534;11.866;2023-11-21T01:25:55;4.80;99.90
26182;DHT22;13927;51.534;11.866;2023-11-21T01:28:21;4.80;99.90
26182;DHT22;13927;51.534;11.866;2023-11-21T01:30:47;4.80;99.90
26182;DHT22;13927;51.534;11.866;2023-11-21T01:33:13;4.80;99.90
26182;DHT22;13927;51.534;11.866;2023-11-21T01:35:41;4.80;99.90
26182;DHT22;13927;51.534;11.866;2023-11-21T01:38:07;4.70;99.90
26182;DHT22;13927;51.534;11.866;2023-11-21T01:40:34;4.80;99.90
26182;DHT22;13927;51.534;11.866;2023-11-21T01:43:00;4.80;99.90
26182;DHT22;13927;51.534;11.866;2023-11-21T01:45:28;4.90;99.90
26182;DHT22;13927;51.534;11.866;2023-11-21T01:47:56;4.90;99.90
26182;DHT22;13927;51.534;11.866;2023-11-21T01:50:24;5.00;99.90
26182;DHT22;13927;51.534;11.866;2023-11-21T01:52:50;5.10;99.90
26182;DHT22;13927;51.534;11.866;2023-11-21T01:55:17;5.20;99.90
26182;DHT22;13927;51.534;11.866;2023-11-21T01:57:44;5.30;99.90
26182;DHT22;13927;51.534;11.866;2023-11-21T02:00:12;5.40;99.90
26182;DHT22;13927;51.534;11.866;2023-11-21T02:02:43;5.50;99.90
26182;DHT22;13927;51.534;11.866;2023-11-21T02:05:16;5.50;99.90
26182;DHT22;13927;51.534;11.866;2023-11-21T02:07:44;5.60;99.90
26182;DHT22;13927;51.534;11.866;2023-11-21T02:10:11;5.70;99.90
26182;DHT22;13927;51.534;11.866;2023-11-21T02:12:43;5.80;99.90
26182;DHT22;13927;51.534;11.866;2023-11-21T02:15:13;5.90;99.90
26182;DHT22;13927;51.534;11.866;2023-11-21T02:17:46;5.90;99.90
26182;DHT22;13927;51.534;11.866;2023-11-21T02:20:17;6.00;99.90
26182;DHT22;13927;51.534;11.866;2023-11-21T02:22:48;6.00;99.90
26182;DHT22;13927;51.534;11.866;2023-11-21T02:25:26;6.10;99.90
26182;DHT22;13927;51.534;11.866;2023-11-21T02:27:56;6.10;99.90
26182;DHT22;13927;51.534;11.866;2023-11-21T02:30:23;6.20;99.90
26182;DHT22;13927;51.534;11.866;2023-11-21T02:32:58;6.20;99.90
26182;DHT22;13927;51.534;11.866;2023-11-21T02:35:27;6.20;99.90
26182;DHT22;13927;51.534;11.866;2023-11-21T02:37:53;6.20;99.90
26182;DHT22;13927;51.534;11.866;2023-11-21T02:40:19;6.30;99.90
26182;DHT22;13927;51.534;11.866;2023-11-21T02:42:50;6.30;99.90
26182;DHT22;13927;51.534;11.866;2023-11-21T02:45:18;6.30;99.90
26182;DHT22;13927;51.534;11.866;2023-11-21T02:47:46;6.30;99.90
26182;DHT22;13927;51.534;11.866;2023-11-21T02:50:12;6.40;99.90
26182;DHT22;13927;51.534;11.866;2023-11-21T02:52:38;6.40;99.90
26182;DHT22;13927;51.534;11.866;2023-11-21T02:55:05;6.50;99.90
26182;DHT22;13927;51.534;11.866;2023-11-21T02:57:32;6.50;99.90
26182;DHT22;13927;51.534;11.866;2023-11-21T02:59:59;6.50;99.90
26182;DHT22;13927;51.534;11.866;2023-11-21T03:02:27;6.50;99.90
26182;DHT22;13927;51.534;11.866;2023-11-21T03:04:53;6.50;99.90
26182;DHT22;13927;51.534;11.866;2023-11-21T03:07:19;6.50;99.90
26182;DHT22;13927;51.534;11.866;2023-11-21T03:09:45;6.50;99.90
26182;DHT22;13927;51.534;11.866;2023-11-21T03:12:11;6.60;99.90
26182;DHT22;13927;51.534;11.866;2023-11-21T03:14:41;6.60;99.90
26182;DHT22;13927;51.534;11.866;2023-11-21T03:17:07;6.60;99.90
26182;DHT22;13927;51.534;11.866;2023-11-21T03:19:33;6.70;99.90
26182;DHT22;13927;51.534;11.866;2023-11-21T03:21:58;6.70;99.90
26182;DHT22;13927;51.534;11.866;2023-11-21T03:24:24;6.70;99.90
26182;DHT22;13927;51.534;11.866;2023-11-21T03:26:51;6.80;99.90
26182;DHT22;13927;51.534;11.866;2023-11-21T03:29:17;6.80;99.90
26182;DHT22;13927;51.534;11.866;2023-11-21T03:31:43;6.80;99.90
26182;DHT22;13927;51.534;11.866;2023-11-21T03:34:25;6.80;99.90
26182;DHT22;13927;51.534;11.866;2023-11-21T03:36:52;6.90;99.90
26182;DHT22;13927;51.534;11.866;2023-11-21T03:39:19;6.90;99.90
26182;DHT22;13927;51.534;11.866;2023-11-21T03:41:46;6.80;99.90
26182;DHT22;13927;51.534;11.866;2023-11-21T03:44:12;6.90;99.90
26182;DHT22;13927;51.534;11.866;2023-11-21T03:46:38;6.90;99.90
26182;DHT22;13927;51.534;11.866;2023-11-21T03:49:04;6.90;99.90
26182;DHT22;13927;51.534;11.866;2023-11-21T03:51:30;6.90;99.90
26182;DHT22;13927;51.534;11.866;2023-11-21T03:53:56;6.90;99.90
26182;DHT22;13927;51.534;11.866;2023-11-21T03:56:21;6.90;99.90
26182;DHT22;13927;51.534;11.866;2023-11-21T03:58:48;7.00;99.90
26182;DHT22;13927;51.534;11.866;2023-11-21T04:01:22;7.00;99.90
26182;DHT22;13927;51.534;11.866;2023-11-21T04:03:50;7.00;99.90
26182;DHT22;13927;51.534;11.866;2023-11-21T04:06:17;7.00;99.90
26182;DHT22;13927;51.534;11.866;2023-11-21T04:08:44;7.00;99.90
26182;DHT22;13927;51.534;11.866;2023-11-21T04:11:10;7.00;99.90
26182;DHT22;13927;51.534;11.866;2023-11-21T04:13:39;7.00;99.90
26182;DHT22;13927;51.534;11.866;2023-11-21T04:16:07;7.00;99.90
26182;DHT22;13927;51.534;11.866;2023-11-21T04:18:35;7.00;99.90
26182;DHT22;13927;51.534;11.866;2023-11-21T04:21:01;7.10;99.90
26182;DHT22;13927;51.534;11.866;2023-11-21T04:23:29;7.00;99.90
26182;DHT22;13927;51.534;11.866;2023-11-21T04:25:56;7.10;99.90
26182;DHT22;13927;51.534;11.866;2023-11-21T04:28:23;7.10;99.90
26182;DHT22;13927;51.534;11.866;2023-11-21T04:30:50;7.10;99.90
26182;DHT22;13927;51.534;11.866;2023-11-21T04:33:16;7.10;99.90
26182;DHT22;13927;51.534;11.866;2023-11-21T04:35:41;7.10;99.90
26182;DHT22;13927;51.534;11.866;2023-11-21T04:38:07;7.20;99.90
26182;DHT22;13927;51.534;11.866;2023-11-21T04:40:33;7.20;99.90
26182;DHT22;13927;51.534;11.866;2023-11-21T04:42:59;7.20;99.90
26182;DHT22;13927;51.534;11.866;2023-11-21T04:45:24;7.20;99.90
26182;DHT22;13927;51.534;11.866;2023-11-21T04:47:50;7.20;99.90
26182;DHT22;13927;51.534;11.866;2023-11-21T04:50:18;7.20;99.90
26182;DHT22;13927;51.534;11.866;2023-11-21T04:52:44;7.20;99.90
26182;DHT22;13927;51.534;11.866;2023-11-21T04:55:10;7.20;99.90
26182;DHT22;13927;51.534;11.866;2023-11-21T04:57:39;7.20;99.90
26182;DHT22;13927;51.534;11.866;2023-11-21T05:00:08;7.20;99.90
26182;DHT22;13927;51.534;11.866;2023-11-21T05:02:35;7.30;99.90
26182;DHT22;13927;51.534;11.866;2023-11-21T05:05:01;7.30;99.90
26182;DHT22;13927;51.534;11.866;2023-11-21T05:07:27;7.30;99.90
26182;DHT22;13927;51.534;11.866;2023-11-21T05:09:54;7.40;99.90
26182;DHT22;13927;51.534;11.866;2023-11-21T05:12:22;7.40;99.90
26182;DHT22;13927;51.534;11.866;2023-11-21T05:14:51;7.30;99.90
26182;DHT22;13927;51.534;11.866;2023-11-21T05:17:17;7.30;99.90
26182;DHT22;13927;51.534;11.866;2023-11-21T05:19:42;7.40;99.90
26182;DHT22;13927;51.534;11.866;2023-11-21T05:22:10;7.40;99.90
26182;DHT22;13927;51.534;11.866;2023-11-21T05:24:37;7.40;99.90
26182;DHT22;13927;51.534;11.866;2023-11-21T05:27:04;7.40;99.90
26182;DHT22;13927;51.534;11.866;2023-11-21T05:29:30;7.40;99.90
26182;DHT22;13927;51.534;11.866;2023-11-21T05:31:56;7.40;99.90
26182;DHT22;13927;51.534;11.866;2023-11-21T05:34:22;7.40;99.90
26182;DHT22;13927;51.534;11.866;2023-11-21T05:36:50;7.40;99.90
26182;DHT22;13927;51.534;11.866;2023-11-21T05:39:16;7.40;99.90
26182;DHT22;13927;51.534;11.866;2023-11-21T05:41:45;7.40;99.90
26182;DHT22;13927;51.534;11.866;2023-11-21T05:44:11;7.40;99.90
26182;DHT22;13927;51.534;11.866;2023-11-21T05:46:37;7.40;99.90
26182;DHT22;13927;51.534;11.866;2023-11-21T05:49:03;7.40;99.90
26182;DHT22;13927;51.534;11.866;2023-11-21T05:51:29;7.40;99.90
26182;DHT22;13927;51.534;11.866;2023-11-21T05:53:54;7.40;99.90
26182;DHT22;13927;51.534;11.866;2023-11-21T05:56:20;7.40;99.90
26182;DHT22;13927;51.534;11.866;2023-11-21T05:58:46;7.40;99.90
26182;DHT22;13927;51.534;11.866;2023-11-21T06:01:12;7.40;99.90
26182;DHT22;13927;51.534;11.866;2023-11-21T06:03:38;7.40;99.90
26182;DHT22;13927;51.534;11.866;2023-11-21T06:06:04;7.40;99.90
26182;DHT22;13927;51.534;11.866;2023-11-21T06:08:30;7.40;99.90
26182;DHT22;13927;51.534;11.866;2023-11-21T06:10:56;7.40;99.90
26182;DHT22;13927;51.534;11.866;2023-11-21T06:13:22;7.40;99.90
26182;DHT22;13927;51.534;11.866;2023-11-21T06:15:50;7.40;99.90
26182;DHT22;13927;51.534;11.866;2023-11-21T06:18:16;7.40;99.90
26182;DHT22;13927;51.534;11.866;2023-11-21T06:20:45;7.40;99.90
26182;DHT22;13927;51.534;11.866;2023-11-21T06:23:11;7.40;99.90
26182;DHT22;13927;51.534;11.866;2023-11-21T06:25:37;7.50;99.90
26182;DHT22;13927;51.534;11.866;2023-11-21T06:28:03;7.50;99.90
26182;DHT22;13927;51.534;11.866;2023-11-21T06:30:29;7.50;99.90
26182;DHT22;13927;51.534;11.866;2023-11-21T06:32:54;7.60;99.90
26182;DHT22;13927;51.534;11.866;2023-11-21T06:35:21;7.60;99.90
26182;DHT22;13927;51.534;11.866;2023-11-21T06:37:47;7.60;99.90
26182;DHT22;13927;51.534;11.866;2023-11-21T06:40:13;7.60;99.90
26182;DHT22;13927;51.534;11.866;2023-11-21T06:42:44;7.70;99.90
26182;DHT22;13927;51.534;11.866;2023-11-21T06:45:10;7.70;99.90
26182;DHT22;13927;51.534;11.866;2023-11-21T06:47:36;7.80;99.90
26182;DHT22;13927;51.534;11.866;2023-11-21T06:50:03;7.80;99.90
26182;DHT22;13927;51.534;11.866;2023-11-21T06:52:29;7.80;99.90
26182;DHT22;13927;51.534;11.866;2023-11-21T06:54:55;7.80;99.90
26182;DHT22;13927;51.534;11.866;2023-11-21T06:57:23;7.90;99.90
26182;DHT22;13927;51.534;11.866;2023-11-21T06:59:49;7.90;99.90
26182;DHT22;13927;51.534;11.866;2023-11-21T07:02:16;7.90;99.90
26182;DHT22;13927;51.534;11.866;2023-11-21T07:04:45;8.00;99.90
26182;DHT22;13927;51.534;11.866;2023-11-21T07:07:12;8.00;99.90
26182;DHT22;13927;51.534;11.866;2023-11-21T07:09:38;8.00;99.90
26182;DHT22;13927;51.534;11.866;2023-11-21T07:12:04;8.10;99.90
26182;DHT22;13927;51.534;11.866;2023-11-21T07:14:33;8.10;99.90
26182;DHT22;13927;51.534;11.866;2023-11-21T07:16:59;8.20;99.90
26182;DHT22;13927;51.534;11.866;2023-11-21T07:19:25;8.20;99.90
26182;DHT22;13927;51.534;11.866;2023-11-21T07:21:51;8.20;99.90
26182;DHT22;13927;51.534;11.866;2023-11-21T07:24:17;8.30;99.90
26182;DHT22;13927;51.534;11.866;2023-11-21T07:26:43;8.30;99.90
26182;DHT22;13927;51.534;11.866;2023-11-21T07:29:08;8.30;99.90
26182;DHT22;13927;51.534;11.866;2023-11-21T07:31:34;8.30;99.90
26182;DHT22;13927;51.534;11.866;2023-11-21T07:34:00;8.30;99.90
26182;DHT22;13927;51.534;11.866;2023-11-21T07:38:53;8.60;99.90
26182;DHT22;13927;51.534;11.866;2023-11-21T07:41:19;8.20;99.90
26182;DHT22;13927;51.534;11.866;2023-11-21T07:43:46;8.10;99.90
26182;DHT22;13927;51.534;11.866;2023-11-21T07:46:12;8.20;99.90
26182;DHT22;13927;51.534;11.866;2023-11-21T07:48:39;8.10;99.90
26182;DHT22;13927;51.534;11.866;2023-11-21T07:51:06;8.10;99.90
26182;DHT22;13927;51.534;11.866;2023-11-21T07:53:35;8.20;99.90
26182;DHT22;13927;51.534;11.866;2023-11-21T07:58:36;8.00;99.90
26182;DHT22;13927;51.534;11.866;2023-11-21T08:01:02;8.00;99.90
26182;DHT22;13927;51.534;11.866;2023-11-21T08:03:29;8.00;99.90
26182;DHT22;13927;51.534;11.866;2023-11-21T08:05:56;8.00;99.90
26182;DHT22;13927;51.534;11.866;2023-11-21T08:08:23;7.90;99.90
26182;DHT22;13927;51.534;11.866;2023-11-21T08:10:49;7.80;99.90
26182;DHT22;13927;51.534;11.866;2023-11-21T08:13:22;7.80;99.90
26182;DHT22;13927;51.534;11.866;2023-11-21T08:15:54;7.80;99.90
26182;DHT22;13927;51.534;11.866;2023-11-21T08:18:20;7.80;99.90
26182;DHT22;13927;51.534;11.866;2023-11-21T08:20:46;7.80;99.90
26182;DHT22;13927;51.534;11.866;2023-11-21T08:23:15;7.60;99.90
26182;DHT22;13927;51.534;11.866;2023-11-21T08:25:44;7.60;99.90
26182;DHT22;13927;51.534;11.866;2023-11-21T08:28:11;7.50;99.90
26182;DHT22;13927;51.534;11.866;2023-11-21T08:30:37;7.50;99.90
26182;DHT22;13927;51.534;11.866;2023-11-21T08:33:03;7.50;99.90
26182;DHT22;13927;51.534;11.866;2023-11-21T08:35:29;7.50;99.90
26182;DHT22;13927;51.534;11.866;2023-11-21T08:37:56;7.50;99.90
26182;DHT22;13927;51.534;11.866;2023-11-21T08:40:22;7.50;99.90
26182;DHT22;13927;51.534;11.866;2023-11-21T08:42:49;7.60;99.90
26182;DHT22;13927;51.534;11.866;2023-11-21T08:45:17;7.60;99.90
26182;DHT22;13927;51.534;11.866;2023-11-21T08:47:43;7.60;99.90
26182;DHT22;13927;51.534;11.866;2023-11-21T08:50:12;7.60;99.90
26182;DHT22;13927;51.534;11.866;2023-11-21T08:52:41;7.70;99.90
26182;DHT22;13927;51.534;11.866;2023-11-21T08:55:10;7.60;99.90
26182;DHT22;13927;51.534;11.866;2023-11-21T08:57:38;7.60;99.90
26182;DHT22;13927;51.534;11.866;2023-11-21T09:00:07;7.60;99.90
26182;DHT22;13927;51.534;11.866;2023-11-21T09:02:39;7.60;99.90
26182;DHT22;13927;51.534;11.866;2023-11-21T09:05:08;7.50;99.90
26182;DHT22;13927;51.534;11.866;2023-11-21T09:07:35;7.40;99.90
26182;DHT22;13927;51.534;11.866;2023-11-21T09:10:02;7.30;99.90
26182;DHT22;13927;51.534;11.866;2023-11-21T09:12:28;7.30;99.90
26182;DHT22;13927;51.534;11.866;2023-11-21T09:14:54;7.30;99.90
26182;DHT22;13927;51.534;11.866;2023-11-21T09:17:20;7.20;99.90
26182;DHT22;13927;51.534;11.866;2023-11-21T09:19:46;7.20;99.90
26182;DHT22;13927;51.534;11.866;2023-11-21T09:22:17;7.10;99.90
26182;DHT22;13927;51.534;11.866;2023-11-21T09:24:43;7.10;99.90
26182;DHT22;13927;51.534;11.866;2023-11-21T09:27:09;7.10;99.90
26182;DHT22;13927;51.534;11.866;2023-11-21T09:29:36;7.10;99.90
26182;DHT22;13927;51.534;11.866;2023-11-21T09:32:04;7.10;99.90
26182;DHT22;13927;51.534;11.866;2023-11-21T09:34:34;7.00;99.90
26182;DHT22;13927;51.534;11.866;2023-11-21T09:37:04;7.00;99.90
26182;DHT22;13927;51.534;11.866;2023-11-21T09:39:32;7.00;99.90
26182;DHT22;13927;51.534;11.866;2023-11-21T09:42:15;7.00;99.90
26182;DHT22;13927;51.534;11.866;2023-11-21T09:44:54;7.00;99.90
26182;DHT22;13927;51.534;11.866;2023-11-21T09:47:27;7.00;99.90
26182;DHT22;13927;51.534;11.866;2023-11-21T09:49:54;7.00;99.90
26182;DHT22;13927;51.534;11.866;2023-11-21T09:52:26;7.00;99.90
26182;DHT22;13927;51.534;11.866;2023-11-21T09:54:54;6.90;99.90
26182;DHT22;13927;51.534;11.866;2023-11-21T09:57:23;7.00;99.90
26182;DHT22;13927;51.534;11.866;2023-11-21T09:59:51;7.00;99.90
26182;DHT22;13927;51.534;11.866;2023-11-21T10:02:25;7.00;99.90
26182;DHT22;13927;51.534;11.866;2023-11-21T10:04:54;7.10;99.90
26182;DHT22;13927;51.534;11.866;2023-11-21T10:07:20;7.10;99.90
26182;DHT22;13927;51.534;11.866;2023-11-21T10:09:47;7.10;99.90
26182;DHT22;13927;51.534;11.866;2023-11-21T10:12:15;7.20;99.90
26182;DHT22;13927;51.534;11.866;2023-11-21T10:14:47;7.30;99.90
26182;DHT22;13927;51.534;11.866;2023-11-21T10:17:14;7.30;99.90
26182;DHT22;13927;51.534;11.866;2023-11-21T10:19:47;7.30;99.90
26182;DHT22;13927;51.534;11.866;2023-11-21T10:22:16;7.40;99.90
26182;DHT22;13927;51.534;11.866;2023-11-21T10:24:42;7.40;99.90
26182;DHT22;13927;51.534;11.866;2023-11-21T10:27:09;7.40;99.90
26182;DHT22;13927;51.534;11.866;2023-11-21T10:29:34;7.40;99.90
26182;DHT22;13927;51.534;11.866;2023-11-21T10:32:02;7.40;99.90
26182;DHT22;13927;51.534;11.866;2023-11-21T10:34:29;7.50;99.90
26182;DHT22;13927;51.534;11.866;2023-11-21T10:36:55;7.50;99.90
26182;DHT22;13927;51.534;11.866;2023-11-21T10:39:24;7.50;99.90
26182;DHT22;13927;51.534;11.866;2023-11-21T10:41:53;7.60;99.90
26182;DHT22;13927;51.534;11.866;2023-11-21T10:44:20;7.60;99.90
26182;DHT22;13927;51.534;11.866;2023-11-21T10:46:51;7.60;99.90
26182;DHT22;13927;51.534;11.866;2023-11-21T10:49:30;7.60;99.90
26182;DHT22;13927;51.534;11.866;2023-11-21T10:51:56;7.60;99.90
26182;DHT22;13927;51.534;11.866;2023-11-21T10:54:24;7.50;99.90
26182;DHT22;13927;51.534;11.866;2023-11-21T10:56:54;7.50;99.90
26182;DHT22;13927;51.534;11.866;2023-11-21T10:59:22;7.50;99.90
26182;DHT22;13927;51.534;11.866;2023-11-21T11:01:50;7.50;99.90
26182;DHT22;13927;51.534;11.866;2023-11-21T11:04:22;7.40;99.90
26182;DHT22;13927;51.534;11.866;2023-11-21T11:07:03;7.50;99.90
26182;DHT22;13927;51.534;11.866;2023-11-21T11:09:31;7.50;99.90
26182;DHT22;13927;51.534;11.866;2023-11-21T11:12:02;7.50;99.90
26182;DHT22;13927;51.534;11.866;2023-11-21T11:14:30;7.60;99.90
26182;DHT22;13927;51.534;11.866;2023-11-21T11:16:58;7.60;99.90
26182;DHT22;13927;51.534;11.866;2023-11-21T11:19:25;7.60;99.90
26182;DHT22;13927;51.534;11.866;2023-11-21T11:27:54;7.50;99.90
26182;DHT22;13927;51.534;11.866;2023-11-21T11:30:42;7.40;99.90
26182;DHT22;13927;51.534;11.866;2023-11-21T11:33:43;7.30;99.90
26182;DHT22;13927;51.534;11.866;2023-11-21T11:36:36;7.30;99.90
26182;DHT22;13927;51.534;11.866;2023-11-21T11:39:34;7.10;99.90
26182;DHT22;13927;51.534;11.866;2023-11-21T11:42:03;7.00;99.90
26182;DHT22;13927;51.534;11.866;2023-11-21T11:47:28;6.90;99.90
26182;DHT22;13927;51.534;11.866;2023-11-21T11:52:47;6.70;99.90
26182;DHT22;13927;51.534;11.866;2023-11-21T11:55:19;6.70;99.90
26182;DHT22;13927;51.534;11.866;2023-11-21T11:57:48;6.70;99.90
26182;DHT22;13927;51.534;11.866;2023-11-21T12:02:55;6.70;99.90
26182;DHT22;13927;51.534;11.866;2023-11-21T12:05:28;6.70;99.90
26182;DHT22;13927;51.534;11.866;2023-11-21T12:07:58;6.70;99.90
26182;DHT22;13927;51.534;11.866;2023-11-21T12:10:30;6.70;99.90
26182;DHT22;13927;51.534;11.866;2023-11-21T12:12:59;6.60;99.90
26182;DHT22;13927;51.534;11.866;2023-11-21T12:15:28;6.60;99.90
26182;DHT22;13927;51.534;11.866;2023-11-21T12:17:56;6.60;99.90
26182;DHT22;13927;51.534;11.866;2023-11-21T12:20:25;6.60;99.90
26182;DHT22;13927;51.534;11.866;2023-11-21T12:22:52;6.70;99.90
26182;DHT22;13927;51.534;11.866;2023-11-21T12:25:23;6.70;99.90
26182;DHT22;13927;51.534;11.866;2023-11-21T12:27:52;6.80;99.90
26182;DHT22;13927;51.534;11.866;2023-11-21T12:30:20;6.80;99.90
26182;DHT22;13927;51.534;11.866;2023-11-21T12:32:52;6.80;99.90
26182;DHT22;13927;51.534;11.866;2023-11-21T12:35:32;6.80;99.90
26182;DHT22;13927;51.534;11.866;2023-11-21T12:38:04;6.80;99.90
26182;DHT22;13927;51.534;11.866;2023-11-21T12:40:34;6.70;99.90
26182;DHT22;13927;51.534;11.866;2023-11-21T12:43:00;6.70;99.90
26182;DHT22;13927;51.534;11.866;2023-11-21T12:45:27;6.70;99.90
26182;DHT22;13927;51.534;11.866;2023-11-21T12:48:02;6.60;99.90
26182;DHT22;13927;51.534;11.866;2023-11-21T12:50:34;6.50;99.90
26182;DHT22;13927;51.534;11.866;2023-11-21T12:53:06;6.50;99.90
26182;DHT22;13927;51.534;11.866;2023-11-21T12:55:34;6.40;99.90
26182;DHT22;13927;51.534;11.866;2023-11-21T12:58:07;6.30;99.90
26182;DHT22;13927;51.534;11.866;2023-11-21T13:00:35;6.30;99.90
26182;DHT22;13927;51.534;11.866;2023-11-21T13:03:06;6.30;99.90
26182;DHT22;13927;51.534;11.866;2023-11-21T13:05:34;6.20;99.90
26182;DHT22;13927;51.534;11.866;2023-11-21T13:08:05;6.20;99.90
26182;DHT22;13927;51.534;11.866;2023-11-21T13:10:39;6.20;99.90
26182;DHT22;13927;51.534;11.866;2023-11-21T13:13:09;6.20;99.90
26182;DHT22;13927;51.534;11.866;2023-11-21T13:15:40;6.10;99.90
26182;DHT22;13927;51.534;11.866;2023-11-21T13:18:08;6.20;99.90
26182;DHT22;13927;51.534;11.866;2023-11-21T13:20:36;6.20;99.90
26182;DHT22;13927;51.534;11.866;2023-11-21T13:23:07;6.20;99.90
26182;DHT22;13927;51.534;11.866;2023-11-21T13:25:34;6.10;99.90
26182;DHT22;13927;51.534;11.866;2023-11-21T13:28:00;6.10;99.90
26182;DHT22;13927;51.534;11.866;2023-11-21T13:30:27;6.10;99.90
26182;DHT22;13927;51.534;11.866;2023-11-21T13:33:08;6.10;99.90
26182;DHT22;13927;51.534;11.866;2023-11-21T13:35:37;6.10;99.90
26182;DHT22;13927;51.534;11.866;2023-11-21T13:38:11;6.00;99.90
26182;DHT22;13927;51.534;11.866;2023-11-21T13:40:39;6.00;99.90
26182;DHT22;13927;51.534;11.866;2023-11-21T13:43:12;6.00;99.90
26182;DHT22;13927;51.534;11.866;2023-11-21T13:45:40;6.00;99.90
26182;DHT22;13927;51.534;11.866;2023-11-21T13:48:07;6.00;99.90
26182;DHT22;13927;51.534;11.866;2023-11-21T13:50:41;6.00;99.90
26182;DHT22;13927;51.534;11.866;2023-11-21T13:53:25;6.00;99.90
26182;DHT22;13927;51.534;11.866;2023-11-21T13:55:52;5.90;99.90
26182;DHT22;13927;51.534;11.866;2023-11-21T13:58:24;5.90;99.90
26182;DHT22;13927;51.534;11.866;2023-11-21T14:01:05;5.90;99.90
26182;DHT22;13927;51.534;11.866;2023-11-21T14:03:37;5.90;99.90
26182;DHT22;13927;51.534;11.866;2023-11-21T14:06:10;5.80;99.90
26182;DHT22;13927;51.534;11.866;2023-11-21T14:08:41;5.80;99.90
26182;DHT22;13927;51.534;11.866;2023-11-21T14:11:07;5.80;99.90
26182;DHT22;13927;51.534;11.866;2023-11-21T14:13:33;5.80;99.90
26182;DHT22;13927;51.534;11.866;2023-11-21T14:16:00;5.70;99.90
26182;DHT22;13927;51.534;11.866;2023-11-21T14:18:28;5.70;99.90
26182;DHT22;13927;51.534;11.866;2023-11-21T14:21:06;5.70;99.90
26182;DHT22;13927;51.534;11.866;2023-11-21T14:23:33;5.70;99.90
26182;DHT22;13927;51.534;11.866;2023-11-21T14:26:01;5.70;99.90
26182;DHT22;13927;51.534;11.866;2023-11-21T14:28:28;5.70;99.90
26182;DHT22;13927;51.534;11.866;2023-11-21T14:30:53;5.60;99.90
26182;DHT22;13927;51.534;11.866;2023-11-21T14:33:19;5.70;99.90
26182;DHT22;13927;51.534;11.866;2023-11-21T14:35:45;5.50;99.90
26182;DHT22;13927;51.534;11.866;2023-11-21T14:38:12;5.50;99.90
26182;DHT22;13927;51.534;11.866;2023-11-21T14:40:40;5.50;99.90
26182;DHT22;13927;51.534;11.866;2023-11-21T14:43:06;5.60;99.90
26182;DHT22;13927;51.534;11.866;2023-11-21T14:45:32;5.60;99.90
26182;DHT22;13927;51.534;11.866;2023-11-21T14:47:59;5.60;99.90
26182;DHT22;13927;51.534;11.866;2023-11-21T14:50:41;5.60;99.90
26182;DHT22;13927;51.534;11.866;2023-11-21T14:53:11;5.60;99.90
26182;DHT22;13927;51.534;11.866;2023-11-21T14:55:40;5.60;99.90
26182;DHT22;13927;51.534;11.866;2023-11-21T14:58:16;5.60;99.90
26182;DHT22;13927;51.534;11.866;2023-11-21T15:00:57;5.50;99.90
26182;DHT22;13927;51.534;11.866;2023-11-21T15:03:28;5.60;99.90
26182;DHT22;13927;51.534;11.866;2023-11-21T15:05:58;5.60;99.90
26182;DHT22;13927;51.534;11.866;2023-11-21T15:08:50;5.60;99.90
26182;DHT22;13927;51.534;11.866;2023-11-21T15:11:33;5.60;99.90
26182;DHT22;13927;51.534;11.866;2023-11-21T15:13:59;5.60;99.90
26182;DHT22;13927;51.534;11.866;2023-11-21T15:16:26;5.60;99.90
26182;DHT22;13927;51.534;11.866;2023-11-21T15:18:52;5.60;99.90
26182;DHT22;13927;51.534;11.866;2023-11-21T15:21:21;5.60;99.90
26182;DHT22;13927;51.534;11.866;2023-11-21T15:23:48;5.60;99.90
26182;DHT22;13927;51.534;11.866;2023-11-21T15:26:13;5.60;99.90
26182;DHT22;13927;51.534;11.866;2023-11-21T15:28:39;5.50;99.90
26182;DHT22;13927;51.534;11.866;2023-11-21T15:31:05;5.50;99.90
26182;DHT22;13927;51.534;11.866;2023-11-21T15:33:33;5.40;99.90
26182;DHT22;13927;51.534;11.866;2023-11-21T15:36:01;5.30;99.90
26182;DHT22;13927;51.534;11.866;2023-11-21T15:38:28;5.20;99.90
26182;DHT22;13927;51.534;11.866;2023-11-21T15:40:54;5.10;99.90
26182;DHT22;13927;51.534;11.866;2023-11-21T15:43:20;5.20;99.90
26182;DHT22;13927;51.534;11.866;2023-11-21T15:45:46;5.10;99.90
26182;DHT22;13927;51.534;11.866;2023-11-21T15:48:12;5.10;99.90
26182;DHT22;13927;51.534;11.866;2023-11-21T15:50:38;5.10;99.90
26182;DHT22;13927;51.534;11.866;2023-11-21T15:53:03;5.10;99.90
26182;DHT22;13927;51.534;11.866;2023-11-21T15:55:30;5.10;99.90